createdAt,value
2019-03-18T00:02:10.819Z,8.53
2019-03-18T00:05:16.668Z,6.77
2019-03-18T00:08:22.407Z,6.33
2019-03-18T00:11:28.198Z,6.13
2019-03-18T00:14:33.923Z,6.57
2019-03-18T00:17:39.721Z,7.13
2019-03-18T00:20:45.506Z,5.93
2019-03-18T00:23:51.345Z,6.03
2019-03-18T00:26:57.236Z,5.63
2019-03-18T00:30:03.087Z,5.50
2019-03-18T00:33:09.179Z,5.60
2019-03-18T00:36:14.897Z,5.50
2019-03-18T00:39:20.643Z,5.00
2019-03-18T00:42:26.638Z,5.70
2019-03-18T00:45:32.382Z,5.70
2019-03-18T00:48:38.182Z,5.80
2019-03-18T00:51:43.988Z,5.60
2019-03-18T00:54:49.945Z,5.40
2019-03-18T00:57:55.848Z,6.33
2019-03-18T01:01:01.595Z,5.70
2019-03-18T01:04:07.453Z,5.60
2019-03-18T01:07:13.279Z,5.77
2019-03-18T01:10:20.095Z,6.33
2019-03-18T01:13:25.899Z,6.17
2019-03-18T01:16:32.701Z,5.47
2019-03-18T01:19:38.430Z,5.50
2019-03-18T01:22:44.180Z,5.30
2019-03-18T01:25:51.065Z,5.23
2019-03-18T01:28:56.766Z,5.50
2019-03-18T01:32:02.591Z,5.53
2019-03-18T01:35:09.114Z,6.27
2019-03-18T01:38:14.932Z,5.50
2019-03-18T01:41:20.694Z,8.40
2019-03-18T01:44:26.466Z,9.83
2019-03-18T01:47:32.310Z,14.00
2019-03-18T01:50:38.095Z,14.57
2019-03-18T01:53:43.929Z,12.93
2019-03-18T01:56:49.703Z,17.50
2019-03-18T01:59:55.494Z,16.73
2019-03-18T02:03:01.222Z,14.57
2019-03-18T02:06:07.012Z,13.23
2019-03-18T02:09:12.732Z,13.97
2019-03-18T02:12:18.519Z,14.60
2019-03-18T02:15:24.238Z,15.50
2019-03-18T02:18:29.962Z,13.43
2019-03-18T02:21:35.721Z,13.77
2019-03-18T02:24:41.505Z,12.10
2019-03-18T02:27:47.253Z,11.90
2019-03-18T02:30:53.043Z,11.90
2019-03-18T02:33:58.876Z,12.57
2019-03-18T02:37:04.617Z,11.90
2019-03-18T02:40:11.683Z,12.57
2019-03-18T02:43:17.700Z,11.70
2019-03-18T02:46:24.521Z,10.87
2019-03-18T02:49:30.264Z,11.47
2019-03-18T02:52:36.005Z,10.57
2019-03-18T02:55:41.732Z,10.67
2019-03-18T02:58:47.683Z,11.20
2019-03-18T03:01:53.422Z,10.63
2019-03-18T03:04:59.273Z,11.37
2019-03-18T03:08:05.409Z,10.03
2019-03-18T03:11:11.118Z,11.90
2019-03-18T03:14:16.902Z,11.17
2019-03-18T03:17:22.648Z,10.87
2019-03-18T03:20:28.522Z,10.77
2019-03-18T03:23:34.259Z,11.10
2019-03-18T03:26:40.064Z,10.33
2019-03-18T03:29:45.883Z,11.50
2019-03-18T03:32:51.782Z,11.00
2019-03-18T03:35:57.671Z,11.67
2019-03-18T03:39:04.478Z,12.13
2019-03-18T03:42:10.390Z,10.63
2019-03-18T03:45:16.346Z,11.00
2019-03-18T03:48:22.053Z,9.33
2019-03-18T03:51:27.902Z,9.80
2019-03-18T03:54:33.872Z,9.00
2019-03-18T03:57:40.354Z,8.80
2019-03-18T04:00:46.329Z,9.90
2019-03-18T04:03:52.317Z,8.67
2019-03-18T04:06:58.253Z,9.33
2019-03-18T04:10:04.457Z,8.63
2019-03-18T04:13:10.188Z,9.40
2019-03-18T04:16:18.834Z,9.53
2019-03-18T04:19:25.603Z,9.73
2019-03-18T04:22:31.432Z,11.43
2019-03-18T04:25:37.201Z,12.73
2019-03-18T04:28:43.118Z,15.07
2019-03-18T04:31:48.867Z,11.43
2019-03-18T04:34:55.639Z,10.47
2019-03-18T04:38:01.479Z,10.97
2019-03-18T04:41:07.255Z,10.97
2019-03-18T04:44:13.047Z,11.30
2019-03-18T04:47:18.856Z,10.90
2019-03-18T04:50:24.678Z,11.20
2019-03-18T04:53:30.399Z,11.63
2019-03-18T04:56:36.186Z,12.17
2019-03-18T04:59:41.955Z,13.37
2019-03-18T05:02:47.844Z,11.93
2019-03-18T05:05:53.611Z,12.47
2019-03-18T05:08:59.498Z,11.30
2019-03-18T05:12:05.365Z,9.83
2019-03-18T05:15:11.484Z,10.77
2019-03-18T05:18:18.860Z,10.33
2019-03-18T05:21:24.562Z,11.33
2019-03-18T05:24:30.667Z,11.37
2019-03-18T05:27:38.875Z,12.07
2019-03-18T05:30:44.634Z,11.27
2019-03-18T05:33:53.163Z,11.77
2019-03-18T05:37:03.501Z,12.50
2019-03-18T05:40:09.600Z,11.33
2019-03-18T05:43:16.547Z,11.50
2019-03-18T05:46:22.385Z,11.50
2019-03-18T05:49:28.198Z,10.90
2019-03-18T05:52:40.500Z,10.80
2019-03-18T05:55:51.598Z,11.33
2019-03-18T05:59:08.445Z,10.97
2019-03-18T06:05:36.421Z,10.10
2019-03-18T06:08:48.233Z,9.27
2019-03-18T06:11:55.773Z,9.97
2019-03-18T06:15:01.539Z,10.07
2019-03-18T06:18:07.465Z,11.23
2019-03-18T06:21:15.772Z,11.60
2019-03-18T06:24:39.153Z,12.33
2019-03-18T06:27:52.924Z,12.40
2019-03-18T06:31:17.770Z,12.57
2019-03-18T06:34:21.426Z,12.20
2019-03-18T06:37:27.190Z,13.77
2019-03-18T06:40:32.989Z,12.53
2019-03-18T06:43:41.264Z,17.07
2019-03-18T06:46:58.723Z,14.93
2019-03-18T06:50:04.581Z,12.87
2019-03-18T06:53:10.341Z,12.00
2019-03-18T06:56:16.281Z,12.27
2019-03-18T06:59:22.062Z,12.43
2019-03-18T07:02:27.940Z,13.13
2019-03-18T07:05:33.841Z,11.80
2019-03-18T07:08:39.708Z,12.10
2019-03-18T07:11:45.565Z,13.43
2019-03-18T07:14:51.350Z,11.90
2019-03-18T07:17:57.100Z,11.70
2019-03-18T07:21:02.850Z,12.10
2019-03-18T07:24:08.680Z,27.40
2019-03-18T07:27:14.504Z,15.07
2019-03-18T07:30:20.340Z,12.80
2019-03-18T07:33:26.139Z,12.53
2019-03-18T07:36:31.923Z,12.30
2019-03-18T07:39:37.697Z,11.47
2019-03-18T07:42:44.676Z,10.90
2019-03-18T07:45:50.577Z,12.10
2019-03-18T07:48:56.384Z,11.30
2019-03-18T07:52:02.164Z,10.80
2019-03-18T07:55:08.164Z,9.60
2019-03-18T07:58:13.976Z,9.57
2019-03-18T08:01:22.088Z,8.70
2019-03-18T08:04:36.840Z,8.90
2019-03-18T08:07:38.475Z,10.03
2019-03-18T08:10:47.376Z,9.90
2019-03-18T08:13:53.230Z,7.93
2019-03-18T08:16:59.042Z,7.17
2019-03-18T08:20:09.752Z,7.30
2019-03-18T08:23:16.921Z,8.30
2019-03-18T08:26:22.597Z,6.47
2019-03-18T08:29:30.735Z,7.80
2019-03-18T08:32:36.501Z,9.63
2019-03-18T08:35:42.331Z,8.30
2019-03-18T08:38:48.105Z,6.53
2019-03-18T08:41:53.833Z,6.93
2019-03-18T08:44:59.562Z,6.67
2019-03-18T08:48:05.409Z,7.30
2019-03-18T08:51:11.303Z,7.37
2019-03-18T08:54:17.165Z,6.63
2019-03-18T08:57:23.055Z,7.60
2019-03-18T09:00:28.954Z,8.20
2019-03-18T09:03:37.390Z,7.47
2019-03-18T09:06:43.356Z,7.87
2019-03-18T09:09:50.181Z,8.67
2019-03-18T09:12:55.929Z,7.97
2019-03-18T09:16:01.919Z,8.33
2019-03-18T09:19:09.173Z,7.47
2019-03-18T09:22:15.147Z,7.97
2019-03-18T09:25:20.942Z,6.80
2019-03-18T09:28:26.703Z,7.63
2019-03-18T09:31:32.528Z,7.43
2019-03-18T09:34:38.466Z,7.40
2019-03-18T09:37:45.523Z,7.20
2019-03-18T09:40:51.445Z,6.60
2019-03-18T09:43:57.335Z,6.67
2019-03-18T09:47:03.109Z,7.63
2019-03-18T09:50:09.569Z,6.43
2019-03-18T09:53:15.674Z,7.70
2019-03-18T09:56:23.090Z,8.90
2019-03-18T09:59:28.958Z,9.13
2019-03-18T10:02:34.692Z,9.07
2019-03-18T10:05:43.871Z,8.80
2019-03-18T10:08:49.180Z,8.77
2019-03-18T10:11:54.958Z,8.20
2019-03-18T10:15:00.714Z,8.67
2019-03-18T10:18:07.868Z,8.20
2019-03-18T10:21:13.734Z,7.57
2019-03-18T10:24:19.687Z,7.87
2019-03-18T10:27:25.497Z,7.23
2019-03-18T10:30:33.869Z,6.77
2019-03-18T10:33:39.082Z,5.60
2019-03-18T10:36:44.840Z,4.93
2019-03-18T10:39:50.612Z,5.60
2019-03-18T10:42:56.452Z,5.00
2019-03-18T10:46:02.195Z,4.80
2019-03-18T10:49:08.021Z,4.17
2019-03-18T10:52:13.762Z,4.57
2019-03-18T10:55:19.742Z,4.10
2019-03-18T10:58:25.489Z,4.63
2019-03-18T11:01:31.240Z,4.77
2019-03-18T11:04:37.063Z,3.90
2019-03-18T11:07:42.813Z,4.47
2019-03-18T11:10:48.611Z,5.10
2019-03-18T11:13:54.346Z,4.90
2019-03-18T11:17:00.106Z,4.67
2019-03-18T11:20:06.753Z,5.10
2019-03-18T11:23:12.754Z,4.47
2019-03-18T11:26:18.581Z,4.83
2019-03-18T11:29:24.412Z,4.87
2019-03-18T11:32:30.273Z,4.80
2019-03-18T11:35:36.110Z,4.03
2019-03-18T11:38:41.887Z,4.50
2019-03-18T11:41:47.836Z,4.60
2019-03-18T11:44:53.550Z,4.30
2019-03-18T11:47:59.481Z,4.53
2019-03-18T11:51:05.441Z,4.20
2019-03-18T11:54:11.448Z,6.40
2019-03-18T11:57:17.256Z,5.40
2019-03-18T12:00:23.271Z,4.30
2019-03-18T12:03:29.148Z,4.60
2019-03-18T12:06:34.920Z,4.23
2019-03-18T12:09:40.661Z,4.57
2019-03-18T12:12:46.513Z,3.87
2019-03-18T12:15:52.374Z,4.30
2019-03-18T12:18:58.095Z,4.20
2019-03-18T12:22:03.975Z,3.90
2019-03-18T12:25:10.099Z,4.57
2019-03-18T12:28:17.075Z,4.73
2019-03-18T12:31:22.828Z,4.50
2019-03-18T12:34:28.583Z,3.40
2019-03-18T12:37:34.430Z,3.40
2019-03-18T12:40:40.372Z,3.30
2019-03-18T12:43:46.124Z,3.73
2019-03-18T12:47:19.759Z,3.43
2019-03-18T12:50:43.197Z,4.03
2019-03-18T12:53:33.315Z,4.57
2019-03-18T12:56:39.236Z,4.13
2019-03-18T12:59:48.040Z,4.10
2019-03-18T13:02:54.003Z,3.87
2019-03-18T13:05:59.776Z,3.43
2019-03-18T13:09:08.682Z,3.70
2019-03-18T13:12:15.117Z,3.90
2019-03-18T13:15:24.082Z,3.43
2019-03-18T13:18:29.970Z,3.67
2019-03-18T13:21:35.754Z,3.90
2019-03-18T13:24:41.498Z,3.10
2019-03-18T13:27:47.226Z,3.30
2019-03-18T13:30:53.193Z,3.50
2019-03-18T13:34:04.721Z,3.27
2019-03-18T13:37:10.403Z,3.30
2019-03-18T13:40:16.393Z,3.50
2019-03-18T13:43:22.084Z,3.17
2019-03-18T13:46:27.872Z,3.63
2019-03-18T13:49:33.663Z,3.07
2019-03-18T13:52:39.545Z,3.10
2019-03-18T13:55:45.408Z,3.53
2019-03-18T13:58:51.132Z,3.00
2019-03-18T14:01:56.869Z,3.40
2019-03-18T14:05:02.838Z,3.37
2019-03-18T14:08:10.192Z,2.80
2019-03-18T14:11:16.106Z,3.30
2019-03-18T14:14:22.146Z,3.00
2019-03-18T14:17:27.955Z,2.93
2019-03-18T14:20:33.790Z,3.70
2019-03-18T14:23:39.561Z,4.00
2019-03-18T14:26:48.088Z,4.87
2019-03-18T14:29:53.821Z,3.27
2019-03-18T14:33:02.925Z,3.50
2019-03-18T14:36:08.744Z,3.27
2019-03-18T14:39:14.595Z,3.57
2019-03-18T14:42:20.380Z,3.13
2019-03-18T14:45:29.245Z,3.50
2019-03-18T14:48:40.947Z,2.90
2019-03-18T14:51:46.702Z,2.13
2019-03-18T14:54:52.545Z,2.17
2019-03-18T14:57:58.448Z,2.60
2019-03-18T15:01:07.650Z,1.90
2019-03-18T15:04:13.555Z,2.70
2019-03-18T15:07:19.375Z,3.90
2019-03-18T15:10:25.182Z,6.70
2019-03-18T15:13:31.442Z,7.13
2019-03-18T15:16:37.383Z,4.00
2019-03-18T15:19:44.007Z,3.07
2019-03-18T15:23:16.089Z,4.43
2019-03-18T15:26:07.249Z,2.80
2019-03-18T15:29:12.991Z,2.93
2019-03-18T15:32:18.772Z,2.33
2019-03-18T15:35:27.640Z,2.23
2019-03-18T15:38:33.597Z,2.37
2019-03-18T15:41:39.357Z,2.20
2019-03-18T15:44:45.132Z,2.47
2019-03-18T15:47:50.863Z,3.40
2019-03-18T15:50:56.578Z,2.70
2019-03-18T15:54:02.311Z,2.47
2019-03-18T15:57:08.076Z,2.77
2019-03-18T16:00:16.990Z,3.00
2019-03-18T16:03:30.324Z,3.00
2019-03-18T16:06:43.275Z,3.77
2019-03-18T16:09:49.070Z,2.63
2019-03-18T16:12:56.034Z,3.47
2019-03-18T16:16:01.966Z,3.30
2019-03-18T16:19:12.051Z,3.27
2019-03-18T16:22:23.508Z,3.63
2019-03-18T16:25:25.495Z,3.80
2019-03-18T16:28:31.290Z,3.70
2019-03-18T16:31:37.020Z,4.23
2019-03-18T16:34:42.903Z,3.53
2019-03-18T16:37:51.311Z,4.20
2019-03-18T16:40:57.074Z,4.13
2019-03-18T16:44:02.789Z,4.33
2019-03-18T16:47:08.571Z,4.60
2019-03-18T16:50:15.502Z,5.90
2019-03-18T16:53:22.239Z,5.07
2019-03-18T16:56:28.006Z,5.30
2019-03-18T16:59:33.955Z,5.30
2019-03-18T17:02:39.696Z,4.40
2019-03-18T17:05:45.444Z,5.07
2019-03-18T17:08:51.186Z,4.83
2019-03-18T17:11:57.051Z,5.97
2019-03-18T17:15:02.819Z,10.73
2019-03-18T17:18:08.967Z,6.40
2019-03-18T17:21:14.754Z,4.50
2019-03-18T17:24:20.621Z,4.57
2019-03-18T17:27:26.617Z,4.07
2019-03-18T17:30:32.368Z,4.77
2019-03-18T17:33:38.220Z,5.77
2019-03-18T17:36:45.829Z,4.90
2019-03-18T17:39:52.961Z,4.90
2019-03-18T17:42:58.856Z,7.67
2019-03-18T17:46:04.958Z,6.97
2019-03-18T17:49:17.970Z,7.50
2019-03-18T17:52:23.717Z,7.60
2019-03-18T17:55:29.804Z,7.67
2019-03-18T17:58:36.793Z,8.00
2019-03-18T18:01:42.597Z,6.23
2019-03-18T18:04:48.353Z,5.77
2019-03-18T18:07:54.149Z,5.80
2019-03-18T18:11:00.035Z,5.30
2019-03-18T18:14:06.107Z,4.57
2019-03-18T18:17:12.103Z,5.30
2019-03-18T18:20:19.231Z,4.47
2019-03-18T18:23:25.059Z,4.83
2019-03-18T18:26:30.955Z,4.83
2019-03-18T18:29:36.802Z,4.33
2019-03-18T18:32:43.065Z,3.40
2019-03-18T18:35:52.317Z,4.27
2019-03-18T18:38:59.551Z,5.00
2019-03-18T18:42:05.478Z,3.97
2019-03-18T18:45:12.582Z,4.10
2019-03-18T18:48:22.142Z,4.27
2019-03-18T18:51:27.928Z,7.87
2019-03-18T18:54:35.863Z,4.50
2019-03-18T18:57:41.718Z,3.83
2019-03-18T19:00:47.466Z,4.87
2019-03-18T19:03:53.249Z,4.50
2019-03-18T19:06:59.001Z,3.97
2019-03-18T19:10:05.297Z,3.97
2019-03-18T19:13:11.061Z,3.63
2019-03-18T19:16:16.931Z,4.13
2019-03-18T19:19:22.743Z,5.27
2019-03-18T19:22:28.651Z,4.13
2019-03-18T19:25:34.457Z,3.90
2019-03-18T19:28:40.249Z,4.10
2019-03-18T19:32:13.609Z,4.50
2019-03-18T19:35:44.453Z,4.20
2019-03-18T19:38:45.593Z,4.77
2019-03-18T19:41:51.317Z,10.03
2019-03-18T19:49:21.535Z,17.10
2019-03-18T19:52:40.265Z,15.23
2019-03-18T19:55:46.085Z,12.23
2019-03-18T19:58:52.044Z,11.27
2019-03-18T20:01:57.795Z,12.33
2019-03-18T20:05:14.379Z,11.63
2019-03-18T20:08:11.031Z,10.40
2019-03-18T20:11:16.755Z,13.57
2019-03-18T20:14:22.646Z,21.17
2019-03-18T20:17:28.484Z,24.00
2019-03-18T20:20:34.235Z,27.47
2019-03-18T20:23:40.028Z,29.60
2019-03-18T20:26:45.832Z,31.70
2019-03-18T20:29:51.565Z,34.63
2019-03-18T20:32:57.595Z,33.47
2019-03-18T20:36:03.408Z,34.90
2019-03-18T20:39:09.405Z,35.30
2019-03-18T20:42:15.118Z,34.67
2019-03-18T20:45:20.934Z,26.77
2019-03-18T20:48:26.922Z,21.70
2019-03-18T20:51:32.808Z,19.20
2019-03-18T20:54:41.501Z,17.23
2019-03-18T20:57:48.063Z,13.33
2019-03-18T21:00:55.127Z,10.83
2019-03-18T21:04:00.861Z,8.90
2019-03-18T21:07:07.698Z,9.03
2019-03-18T21:10:13.539Z,7.40
2019-03-18T21:13:19.262Z,6.97
2019-03-18T21:16:25.147Z,6.37
2019-03-18T21:19:30.895Z,6.60
2019-03-18T21:22:36.705Z,6.67
2019-03-18T21:25:42.539Z,5.13
2019-03-18T21:28:48.264Z,4.83
2019-03-18T21:31:54.038Z,7.80
2019-03-18T21:34:59.784Z,5.80
2019-03-18T21:38:05.943Z,5.40
2019-03-18T21:41:11.678Z,5.03
2019-03-18T21:44:17.512Z,4.87
2019-03-18T21:47:23.280Z,5.00
2019-03-18T21:50:29.120Z,5.33
2019-03-18T21:53:35.043Z,6.50
2019-03-18T21:56:40.853Z,4.77
2019-03-18T21:59:46.585Z,5.30
2019-03-18T22:02:52.513Z,5.50
2019-03-18T22:06:00.753Z,5.43
2019-03-18T22:09:07.328Z,6.10
2019-03-18T22:12:13.092Z,5.87
2019-03-18T22:15:19.070Z,6.60
2019-03-18T22:18:24.830Z,6.17
2019-03-18T22:21:30.573Z,5.67
2019-03-18T22:24:44.722Z,5.03
2019-03-18T22:27:44.121Z,6.00
2019-03-18T22:30:49.842Z,5.60
2019-03-18T22:33:55.694Z,6.20
2019-03-18T22:37:01.435Z,5.23
2019-03-18T22:40:07.311Z,6.30
2019-03-18T22:43:13.050Z,5.73
2019-03-18T22:46:18.809Z,5.80
2019-03-18T22:49:24.548Z,6.07
2019-03-18T22:52:30.555Z,5.60
2019-03-18T22:55:36.442Z,5.30
2019-03-18T22:58:42.182Z,5.13
2019-03-18T23:01:47.910Z,6.50
2019-03-18T23:04:53.638Z,5.20
2019-03-18T23:08:00.453Z,5.83
2019-03-18T23:11:06.325Z,5.47
2019-03-18T23:14:12.084Z,5.57
2019-03-18T23:17:17.867Z,5.03
2019-03-18T23:20:23.697Z,5.60
2019-03-18T23:23:29.578Z,5.63
2019-03-18T23:26:35.312Z,5.50
2019-03-18T23:29:41.109Z,5.20
2019-03-18T23:32:46.861Z,5.23
2019-03-18T23:35:52.634Z,5.40
2019-03-18T23:38:58.727Z,4.90
2019-03-18T23:42:04.769Z,5.93
2019-03-18T23:45:11.295Z,5.87
2019-03-18T23:48:17.018Z,5.70
2019-03-18T23:51:22.782Z,6.17
2019-03-18T23:54:28.509Z,5.40
2019-03-18T23:57:34.416Z,5.23
